Decoded Metar for PATO (PORTAGE GLACIER in AK, USA) (IATA:POR) | Meteo·Mobile Aviation Weather
aviador You're here:

PATO Decoded Metar

PORTAGE GLACIER in AK, USA
Report Time2018-12-17 09:53:00
UTC Time2018-12-17 10:10:01
Flight Rules ifr IFR
Wind280° at 03 kt
W.Rank280° ranks 7
Current wind is below 280° avg. (6.6)
Visibility1609 m
Phenomena:Light Snow
Mist
Clouds:N/A
Expected CloudBase > 800 ft AGL from Temp-Dew spread
Ceiling1,300 ft
Temp-4°C (ISA -19)
Dew Point-6°C (86% RH)
AAT-7.8°C
QNH974 hPa
Density Alt-804 ft
Elevation102 ft
Report Wrong Elevation
Raw Report
PATO 170953Z AUTO 28003KT 1SM -SN BR VV013 M04/M06 A2877 RMK AO2
SLP745 P0000 T10441056 TSNO $=

Extra information for PATO:More info

Metar Taf Metar & Taf Last 4 Metars F.Rules Stats Wind Profile Meteogram Temp Stats Airport Information Weather charts Add Link Nearby VenuesMetar ALERT Operation Metar Decoded Social comments

AIRNAV info for PATO